sensor_id;sensor_type;location;lat;lon;timestamp;pressure;altitude;pressure_sealevel;temperature;humidity
48244;BME280;34053;51.088;6.572;2023-04-01T00:02:10;98803.97;;;9.68;87.11
48244;BME280;34053;51.088;6.572;2023-04-01T00:04:40;98817.28;;;9.63;87.49
48244;BME280;34053;51.088;6.572;2023-04-01T00:07:12;98798.22;;;9.61;87.65
48244;BME280;34053;51.088;6.572;2023-04-01T00:09:42;98802.28;;;9.67;86.46
48244;BME280;34053;51.088;6.572;2023-04-01T00:12:13;98799.91;;;9.62;87.49
48244;BME280;34053;51.088;6.572;2023-04-01T00:14:43;98798.22;;;9.61;87.84
48244;BME280;34053;51.088;6.572;2023-04-01T00:17:14;98807.16;;;9.57;87.77
48244;BME280;34053;51.088;6.572;2023-04-01T00:19:45;98807.59;;;9.65;86.85
48244;BME280;34053;51.088;6.572;2023-04-01T00:22:23;98801.59;;;9.63;86.94
48244;BME280;34053;51.088;6.572;2023-04-01T00:24:54;98800.78;;;9.79;86.76
48244;BME280;34053;51.088;6.572;2023-04-01T00:27:25;98794.84;;;9.59;87.20
48244;BME280;34053;51.088;6.572;2023-04-01T00:29:55;98800.22;;;9.56;87.79
48244;BME280;34053;51.088;6.572;2023-04-01T00:32:26;98803.09;;;9.51;88.11
48244;BME280;34053;51.088;6.572;2023-04-01T00:34:59;98806.09;;;9.61;87.69
48244;BME280;34053;51.088;6.572;2023-04-01T00:37:34;98798.28;;;9.59;87.58
48244;BME280;34053;51.088;6.572;2023-04-01T00:40:22;98789.06;;;9.52;88.10
48244;BME280;34053;51.088;6.572;2023-04-01T00:42:53;98791.81;;;9.67;87.25
48244;BME280;34053;51.088;6.572;2023-04-01T00:45:34;98792.47;;;9.54;87.65
48244;BME280;34053;51.088;6.572;2023-04-01T00:48:13;98794.69;;;9.62;87.11
48244;BME280;34053;51.088;6.572;2023-04-01T00:50:49;98794.16;;;9.55;87.41
48244;BME280;34053;51.088;6.572;2023-04-01T00:53:29;98791.19;;;9.45;87.72
48244;BME280;34053;51.088;6.572;2023-04-01T00:56:07;98788.41;;;9.49;88.14
48244;BME280;34053;51.088;6.572;2023-04-01T00:58:50;98790.78;;;9.53;87.82
48244;BME280;34053;51.088;6.572;2023-04-01T01:01:23;98791.25;;;9.44;87.84
48244;BME280;34053;51.088;6.572;2023-04-01T01:03:55;98797.34;;;9.44;87.79
48244;BME280;34053;51.088;6.572;2023-04-01T01:12:26;98794.66;;;9.46;88.58
48244;BME280;34053;51.088;6.572;2023-04-01T01:15:27;98794.56;;;9.48;87.86
48244;BME280;34053;51.088;6.572;2023-04-01T01:27:04;98794.06;;;9.41;88.75
48244;BME280;34053;51.088;6.572;2023-04-01T01:29:52;98791.00;;;9.33;88.74
48244;BME280;34053;51.088;6.572;2023-04-01T01:35:46;98776.75;;;9.54;88.06
48244;BME280;34053;51.088;6.572;2023-04-01T01:38:29;98791.34;;;9.42;88.89
48244;BME280;34053;51.088;6.572;2023-04-01T01:41:05;98786.69;;;9.32;89.45
48244;BME280;34053;51.088;6.572;2023-04-01T01:43:39;98786.13;;;9.42;89.40
48244;BME280;34053;51.088;6.572;2023-04-01T01:46:19;98793.38;;;9.37;89.17
48244;BME280;34053;51.088;6.572;2023-04-01T01:48:57;98788.53;;;9.29;89.97
48244;BME280;34053;51.088;6.572;2023-04-01T01:51:30;98791.06;;;9.31;90.31
48244;BME280;34053;51.088;6.572;2023-04-01T01:54:03;98792.44;;;9.38;89.99
48244;BME280;34053;51.088;6.572;2023-04-01T01:56:38;98788.69;;;9.26;89.94
48244;BME280;34053;51.088;6.572;2023-04-01T01:59:11;98786.75;;;9.30;90.48
48244;BME280;34053;51.088;6.572;2023-04-01T02:01:48;98780.94;;;9.25;91.16
48244;BME280;34053;51.088;6.572;2023-04-01T02:04:21;98775.59;;;9.26;91.26
48244;BME280;34053;51.088;6.572;2023-04-01T02:07:05;98775.09;;;9.20;91.75
48244;BME280;34053;51.088;6.572;2023-04-01T02:09:38;98780.59;;;9.31;91.81
48244;BME280;34053;51.088;6.572;2023-04-01T02:12:11;98785.47;;;9.21;91.62
48244;BME280;34053;51.088;6.572;2023-04-01T02:14:54;98777.53;;;9.23;91.66
48244;BME280;34053;51.088;6.572;2023-04-01T02:17:30;98774.66;;;9.11;92.02
48244;BME280;34053;51.088;6.572;2023-04-01T02:20:18;98770.56;;;9.23;91.56
48244;BME280;34053;51.088;6.572;2023-04-01T02:22:56;98778.16;;;9.28;90.53
48244;BME280;34053;51.088;6.572;2023-04-01T02:25:35;98788.34;;;9.17;90.86
48244;BME280;34053;51.088;6.572;2023-04-01T02:28:10;98780.13;;;9.07;91.19
48244;BME280;34053;51.088;6.572;2023-04-01T02:30:41;98782.75;;;9.07;91.51
48244;BME280;34053;51.088;6.572;2023-04-01T02:33:13;98772.19;;;9.08;91.04
48244;BME280;34053;51.088;6.572;2023-04-01T02:35:47;98781.41;;;9.16;89.82
48244;BME280;34053;51.088;6.572;2023-04-01T02:38:21;98779.72;;;9.14;90.10
48244;BME280;34053;51.088;6.572;2023-04-01T02:40:59;98781.41;;;9.16;89.99
48244;BME280;34053;51.088;6.572;2023-04-01T02:43:30;98792.13;;;9.11;90.21
48244;BME280;34053;51.088;6.572;2023-04-01T02:46:04;98792.88;;;9.13;90.33
48244;BME280;34053;51.088;6.572;2023-04-01T02:48:44;98799.28;;;9.07;90.35
48244;BME280;34053;51.088;6.572;2023-04-01T02:51:15;98798.69;;;9.02;90.92
48244;BME280;34053;51.088;6.572;2023-04-01T02:53:55;98796.38;;;8.96;90.98
48244;BME280;34053;51.088;6.572;2023-04-01T02:56:29;98798.81;;;8.99;91.41
48244;BME280;34053;51.088;6.572;2023-04-01T02:59:05;98813.75;;;8.97;91.56
48244;BME280;34053;51.088;6.572;2023-04-01T03:01:36;98796.38;;;8.96;91.74
48244;BME280;34053;51.088;6.572;2023-04-01T03:04:11;98804.97;;;8.98;92.10
48244;BME280;34053;51.088;6.572;2023-04-01T03:06:48;98805.91;;;8.97;92.59
48244;BME280;34053;51.088;6.572;2023-04-01T03:09:19;98802.22;;;9.01;91.99
48244;BME280;34053;51.088;6.572;2023-04-01T03:11:50;98811.13;;;8.97;92.51
48244;BME280;34053;51.088;6.572;2023-04-01T03:14:20;98809.47;;;8.96;92.73
48244;BME280;34053;51.088;6.572;2023-04-01T03:17:11;98800.53;;;9.00;92.89
48244;BME280;34053;51.088;6.572;2023-04-01T03:19:44;98807.31;;;9.04;92.66
48244;BME280;34053;51.088;6.572;2023-04-01T03:22:15;98812.91;;;8.96;93.09
48244;BME280;34053;51.088;6.572;2023-04-01T03:24:49;98823.22;;;9.00;93.12
48244;BME280;34053;51.088;6.572;2023-04-01T03:27:22;98817.31;;;8.96;93.19
48244;BME280;34053;51.088;6.572;2023-04-01T03:29:53;98823.47;;;8.95;93.88
48244;BME280;34053;51.088;6.572;2023-04-01T03:32:24;98824.38;;;8.94;93.92
48244;BME280;34053;51.088;6.572;2023-04-01T03:34:58;98825.63;;;9.04;93.41
48244;BME280;34053;51.088;6.572;2023-04-01T03:37:29;98824.28;;;8.95;94.03
48244;BME280;34053;51.088;6.572;2023-04-01T03:40:03;98829.44;;;8.97;94.82
48244;BME280;34053;51.088;6.572;2023-04-01T03:42:34;98829.63;;;8.94;94.73
48244;BME280;34053;51.088;6.572;2023-04-01T03:45:05;98823.38;;;8.96;94.83
48244;BME280;34053;51.088;6.572;2023-04-01T03:47:36;98830.22;;;8.99;94.42
48244;BME280;34053;51.088;6.572;2023-04-01T03:50:10;98823.53;;;8.93;95.64
48244;BME280;34053;51.088;6.572;2023-04-01T03:52:41;98826.00;;;8.96;94.75
48244;BME280;34053;51.088;6.572;2023-04-01T03:55:14;98825.91;;;8.98;95.26
48244;BME280;34053;51.088;6.572;2023-04-01T03:57:57;98823.75;;;8.89;95.07
48244;BME280;34053;51.088;6.572;2023-04-01T04:00:30;98821.00;;;8.92;95.04
48244;BME280;34053;51.088;6.572;2023-04-01T04:03:01;98828.75;;;8.93;95.07
48244;BME280;34053;51.088;6.572;2023-04-01T04:05:34;98827.78;;;8.96;95.36
48244;BME280;34053;51.088;6.572;2023-04-01T04:08:05;98835.13;;;9.05;94.82
48244;BME280;34053;51.088;6.572;2023-04-01T04:10:36;98829.28;;;9.00;95.01
48244;BME280;34053;51.088;6.572;2023-04-01T04:13:07;98832.13;;;8.95;95.44
48244;BME280;34053;51.088;6.572;2023-04-01T04:15:38;98834.84;;;8.94;95.92
48244;BME280;34053;51.088;6.572;2023-04-01T04:18:08;98830.75;;;8.88;96.17
48244;BME280;34053;51.088;6.572;2023-04-01T04:20:46;98834.84;;;8.94;95.91
48244;BME280;34053;51.088;6.572;2023-04-01T04:23:18;98835.16;;;8.88;96.34
48244;BME280;34053;51.088;6.572;2023-04-01T04:25:58;98843.75;;;8.90;96.36
48244;BME280;34053;51.088;6.572;2023-04-01T04:28:29;98839.38;;;8.90;95.54
48244;BME280;34053;51.088;6.572;2023-04-01T04:31:00;98842.69;;;8.94;95.92
48244;BME280;34053;51.088;6.572;2023-04-01T04:33:32;98846.22;;;8.93;96.80
48244;BME280;34053;51.088;6.572;2023-04-01T04:36:06;98845.13;;;8.97;96.21
48244;BME280;34053;51.088;6.572;2023-04-01T04:38:40;98844.06;;;9.01;96.07
48244;BME280;34053;51.088;6.572;2023-04-01T04:41:15;98850.16;;;8.84;97.38
48244;BME280;34053;51.088;6.572;2023-04-01T04:43:53;98843.63;;;8.93;96.90
48244;BME280;34053;51.088;6.572;2023-04-01T04:46:25;98853.06;;;8.95;96.90
48244;BME280;34053;51.088;6.572;2023-04-01T04:48:56;98855.78;;;8.94;96.76
48244;BME280;34053;51.088;6.572;2023-04-01T04:51:26;98859.44;;;8.90;97.59
48244;BME280;34053;51.088;6.572;2023-04-01T04:54:00;98859.44;;;8.90;97.46
48244;BME280;34053;51.088;6.572;2023-04-01T04:56:36;98864.75;;;8.88;97.85
48244;BME280;34053;51.088;6.572;2023-04-01T04:59:10;98865.78;;;8.86;98.43
48244;BME280;34053;51.088;6.572;2023-04-01T05:01:40;98858.63;;;8.89;98.52
48244;BME280;34053;51.088;6.572;2023-04-01T05:04:16;98865.69;;;8.87;98.83
48244;BME280;34053;51.088;6.572;2023-04-01T05:06:50;98867.94;;;8.95;98.13
48244;BME280;34053;51.088;6.572;2023-04-01T05:09:22;98869.91;;;8.90;98.53
48244;BME280;34053;51.088;6.572;2023-04-01T05:11:53;98868.69;;;8.79;99.07
48244;BME280;34053;51.088;6.572;2023-04-01T05:14:26;98871.91;;;8.85;99.11
48244;BME280;34053;51.088;6.572;2023-04-01T05:17:08;98869.38;;;8.83;99.01
48244;BME280;34053;51.088;6.572;2023-04-01T05:19:40;98873.63;;;8.86;99.04
48244;BME280;34053;51.088;6.572;2023-04-01T05:22:10;98877.84;;;8.88;98.34
48244;BME280;34053;51.088;6.572;2023-04-01T05:24:43;98874.41;;;8.88;97.91
48244;BME280;34053;51.088;6.572;2023-04-01T05:27:14;98878.38;;;8.95;97.98
48244;BME280;34053;51.088;6.572;2023-04-01T05:29:48;98878.69;;;8.89;98.03
48244;BME280;34053;51.088;6.572;2023-04-01T05:32:21;98880.53;;;8.87;98.19
48244;BME280;34053;51.088;6.572;2023-04-01T05:37:39;98883.28;;;8.84;98.25
48244;BME280;34053;51.088;6.572;2023-04-01T05:40:13;98884.91;;;8.86;98.35
48244;BME280;34053;51.088;6.572;2023-04-01T05:42:43;98890.22;;;8.85;98.24
48244;BME280;34053;51.088;6.572;2023-04-01T05:45:17;98889.63;;;8.79;98.28
48244;BME280;34053;51.088;6.572;2023-04-01T05:47:50;98890.53;;;8.78;98.64
48244;BME280;34053;51.088;6.572;2023-04-01T05:50:21;98890.00;;;8.89;97.63
48244;BME280;34053;51.088;6.572;2023-04-01T05:52:52;98891.00;;;8.87;97.38
48244;BME280;34053;51.088;6.572;2023-04-01T05:55:23;98892.53;;;8.91;97.79
48244;BME280;34053;51.088;6.572;2023-04-01T05:57:57;98899.91;;;8.82;97.25
48244;BME280;34053;51.088;6.572;2023-04-01T06:00:32;98900.59;;;8.86;97.69
48244;BME280;34053;51.088;6.572;2023-04-01T06:03:05;98903.38;;;8.83;97.53
48244;BME280;34053;51.088;6.572;2023-04-01T06:05:40;98902.53;;;8.82;97.91
48244;BME280;34053;51.088;6.572;2023-04-01T06:08:14;98894.75;;;8.81;97.01
48244;BME280;34053;51.088;6.572;2023-04-01T06:16:31;98906.69;;;8.87;97.21
48244;BME280;34053;51.088;6.572;2023-04-01T06:22:25;98915.94;;;8.94;97.12
48244;BME280;34053;51.088;6.572;2023-04-01T06:27:57;98918.53;;;8.94;96.81
48244;BME280;34053;51.088;6.572;2023-04-01T06:54:18;98943.31;;;8.87;100.00
48244;BME280;34053;51.088;6.572;2023-04-01T06:56:57;98949.25;;;8.90;99.98
48244;BME280;34053;51.088;6.572;2023-04-01T07:14:06;98959.00;;;8.87;100.00
48244;BME280;34053;51.088;6.572;2023-04-01T07:17:04;98964.06;;;8.90;100.00
48244;BME280;34053;51.088;6.572;2023-04-01T07:20:52;98965.47;;;8.97;99.37
48244;BME280;34053;51.088;6.572;2023-04-01T07:26:41;98977.78;;;8.95;99.81
48244;BME280;34053;51.088;6.572;2023-04-01T07:29:14;98974.16;;;8.97;100.00
48244;BME280;34053;51.088;6.572;2023-04-01T07:32:06;98978.22;;;8.86;100.00
48244;BME280;34053;51.088;6.572;2023-04-01T07:34:56;98982.38;;;8.90;100.00
48244;BME280;34053;51.088;6.572;2023-04-01T07:37:34;98985.69;;;8.93;100.00
48244;BME280;34053;51.088;6.572;2023-04-01T07:40:34;98991.13;;;8.89;100.00
48244;BME280;34053;51.088;6.572;2023-04-01T07:43:40;98988.38;;;8.92;99.93
48244;BME280;34053;51.088;6.572;2023-04-01T07:46:23;98995.31;;;8.93;99.93
48244;BME280;34053;51.088;6.572;2023-04-01T07:49:12;98998.84;;;8.92;100.00
48244;BME280;34053;51.088;6.572;2023-04-01T07:51:56;98997.84;;;8.94;99.78
48244;BME280;34053;51.088;6.572;2023-04-01T08:00:23;99023.28;;;9.10;99.09
48244;BME280;34053;51.088;6.572;2023-04-01T08:05:59;99027.38;;;9.16;98.77
48244;BME280;34053;51.088;6.572;2023-04-01T08:08:45;99026.09;;;9.05;99.14
48244;BME280;34053;51.088;6.572;2023-04-01T08:14:03;99025.28;;;9.05;98.83
48244;BME280;34053;51.088;6.572;2023-04-01T08:16:48;99042.53;;;9.09;99.56
48244;BME280;34053;51.088;6.572;2023-04-01T08:22:27;99041.09;;;9.21;99.05
48244;BME280;34053;51.088;6.572;2023-04-01T08:25:03;99045.25;;;9.25;98.93
48244;BME280;34053;51.088;6.572;2023-04-01T08:27:41;99054.44;;;9.14;100.00
48244;BME280;34053;51.088;6.572;2023-04-01T08:30:20;99049.00;;;9.19;100.00
48244;BME280;34053;51.088;6.572;2023-04-01T08:32:56;99055.63;;;9.26;100.00
48244;BME280;34053;51.088;6.572;2023-04-01T08:35:32;99059.19;;;9.25;99.93
48244;BME280;34053;51.088;6.572;2023-04-01T08:38:14;99053.53;;;9.16;99.97
48244;BME280;34053;51.088;6.572;2023-04-01T08:52:36;99073.38;;;9.39;97.97
48244;BME280;34053;51.088;6.572;2023-04-01T09:35:02;99119.63;;;9.38;97.42
48244;BME280;34053;51.088;6.572;2023-04-01T10:24:40;99176.56;;;9.52;98.24
48244;BME280;34053;51.088;6.572;2023-04-01T10:54:21;99196.28;;;9.79;96.46
48244;BME280;34053;51.088;6.572;2023-04-01T11:29:11;99226.84;;;10.15;92.96
48244;BME280;34053;51.088;6.572;2023-04-01T11:40:27;99240.28;;;10.26;91.06
48244;BME280;34053;51.088;6.572;2023-04-01T11:43:26;99245.34;;;10.29;91.28
48244;BME280;34053;51.088;6.572;2023-04-01T11:46:15;99243.78;;;10.44;91.82
48244;BME280;34053;51.088;6.572;2023-04-01T12:00:56;99264.22;;;10.55;89.99
48244;BME280;34053;51.088;6.572;2023-04-01T12:03:54;99265.13;;;10.54;90.09
48244;BME280;34053;51.088;6.572;2023-04-01T12:09:47;99269.41;;;10.57;88.88
48244;BME280;34053;51.088;6.572;2023-04-01T12:12:26;99270.84;;;10.62;89.83
48244;BME280;34053;51.088;6.572;2023-04-01T12:26:47;99287.94;;;10.87;89.32
48244;BME280;34053;51.088;6.572;2023-04-01T12:40:51;99303.31;;;10.60;89.46
48244;BME280;34053;51.088;6.572;2023-04-01T12:57:58;99323.16;;;10.65;90.06
48244;BME280;34053;51.088;6.572;2023-04-01T13:09:30;99332.00;;;10.45;91.05
48244;BME280;34053;51.088;6.572;2023-04-01T13:27:24;99348.91;;;10.57;90.12
48244;BME280;34053;51.088;6.572;2023-04-01T13:35:51;99358.47;;;10.58;90.26
48244;BME280;34053;51.088;6.572;2023-04-01T13:46:54;99366.84;;;10.84;89.65
48244;BME280;34053;51.088;6.572;2023-04-01T13:52:08;99369.31;;;10.69;89.03
48244;BME280;34053;51.088;6.572;2023-04-01T13:57:40;99375.41;;;10.70;89.00
48244;BME280;34053;51.088;6.572;2023-04-01T14:00:25;99374.56;;;10.69;88.59
48244;BME280;34053;51.088;6.572;2023-04-01T14:06:02;99379.50;;;10.76;88.86
48244;BME280;34053;51.088;6.572;2023-04-01T14:14:46;99388.88;;;10.62;90.06
48244;BME280;34053;51.088;6.572;2023-04-01T14:20:47;99395.38;;;10.73;89.70
48244;BME280;34053;51.088;6.572;2023-04-01T14:23:42;99404.34;;;10.68;89.95
48244;BME280;34053;51.088;6.572;2023-04-01T14:26:55;99404.78;;;10.59;90.93
48244;BME280;34053;51.088;6.572;2023-04-01T14:45:31;99423.84;;;10.63;90.74
48244;BME280;34053;51.088;6.572;2023-04-01T14:49:00;99429.88;;;10.65;90.29
48244;BME280;34053;51.088;6.572;2023-04-01T14:51:37;99432.13;;;10.53;90.61
48244;BME280;34053;51.088;6.572;2023-04-01T14:56:50;99433.06;;;10.52;90.06
48244;BME280;34053;51.088;6.572;2023-04-01T15:02:25;99440.72;;;10.57;89.46
48244;BME280;34053;51.088;6.572;2023-04-01T15:07:54;99451.13;;;10.78;88.49
48244;BME280;34053;51.088;6.572;2023-04-01T15:22:15;99465.03;;;10.61;90.26
48244;BME280;34053;51.088;6.572;2023-04-01T15:24:50;99466.72;;;10.62;90.25
48244;BME280;34053;51.088;6.572;2023-04-01T15:27:35;99461.19;;;10.68;89.44
48244;BME280;34053;51.088;6.572;2023-04-01T15:30:27;99467.56;;;10.62;89.61
48244;BME280;34053;51.088;6.572;2023-04-01T15:38:53;99476.69;;;10.73;89.52
48244;BME280;34053;51.088;6.572;2023-04-01T15:44:49;99481.50;;;10.82;89.17
48244;BME280;34053;51.088;6.572;2023-04-01T15:55:19;99495.66;;;10.60;90.09
48244;BME280;34053;51.088;6.572;2023-04-01T15:58:22;99496.78;;;10.74;89.72
48244;BME280;34053;51.088;6.572;2023-04-01T16:15:24;99509.03;;;10.54;91.64
48244;BME280;34053;51.088;6.572;2023-04-01T16:20:51;99518.47;;;10.58;90.27
48244;BME280;34053;51.088;6.572;2023-04-01T16:26:22;99527.56;;;10.51;90.83
48244;BME280;34053;51.088;6.572;2023-04-01T16:29:10;99529.81;;;10.59;89.73
48244;BME280;34053;51.088;6.572;2023-04-01T16:34:48;99542.59;;;10.47;89.93
48244;BME280;34053;51.088;6.572;2023-04-01T16:37:33;99549.75;;;10.44;90.18
48244;BME280;34053;51.088;6.572;2023-04-01T16:40:24;99542.25;;;10.34;90.22
48244;BME280;34053;51.088;6.572;2023-04-01T16:45:53;99542.59;;;10.47;89.79
48244;BME280;34053;51.088;6.572;2023-04-01T16:48:36;99553.50;;;10.57;89.07
48244;BME280;34053;51.088;6.572;2023-04-01T16:51:17;99555.19;;;10.39;90.28
48244;BME280;34053;51.088;6.572;2023-04-01T17:06:00;99582.84;;;10.46;90.50
48244;BME280;34053;51.088;6.572;2023-04-01T17:08:46;99579.88;;;10.33;91.28
48244;BME280;34053;51.088;6.572;2023-04-01T17:11:27;99586.44;;;10.23;92.06
48244;BME280;34053;51.088;6.572;2023-04-01T17:17:10;99589.66;;;10.30;91.48
48244;BME280;34053;51.088;6.572;2023-04-01T17:19:59;99598.97;;;10.16;92.14
48244;BME280;34053;51.088;6.572;2023-04-01T17:30:36;99613.59;;;10.01;91.92
48244;BME280;34053;51.088;6.572;2023-04-01T17:36:11;99615.69;;;9.93;91.36
48244;BME280;34053;51.088;6.572;2023-04-01T17:41:50;99628.69;;;9.95;91.58
48244;BME280;34053;51.088;6.572;2023-04-01T17:50:35;99652.22;;;9.96;90.33
48244;BME280;34053;51.088;6.572;2023-04-01T17:52:45;99655.28;;;9.85;90.87
48244;BME280;34053;51.088;6.572;2023-04-01T17:58:12;99657.91;;;9.85;91.13
48244;BME280;34053;51.088;6.572;2023-04-01T18:04:05;99668.94;;;9.71;91.13
48244;BME280;34053;51.088;6.572;2023-04-01T18:24:18;99693.94;;;9.80;92.29
48244;BME280;34053;51.088;6.572;2023-04-01T18:27:00;99692.94;;;9.83;92.07
48244;BME280;34053;51.088;6.572;2023-04-01T18:32:26;99703.78;;;9.73;93.22
48244;BME280;34053;51.088;6.572;2023-04-01T18:35:00;99707.75;;;9.84;92.61
48244;BME280;34053;51.088;6.572;2023-04-01T18:40:24;99721.22;;;9.74;92.67
48244;BME280;34053;51.088;6.572;2023-04-01T18:43:14;99717.25;;;9.64;93.78
48244;BME280;34053;51.088;6.572;2023-04-01T18:46:05;99722.38;;;9.67;92.80
48244;BME280;34053;51.088;6.572;2023-04-01T18:51:21;99734.47;;;9.48;93.97
48244;BME280;34053;51.088;6.572;2023-04-01T18:54:00;99735.66;;;9.63;92.71
48244;BME280;34053;51.088;6.572;2023-04-01T18:56:38;99726.94;;;9.62;92.66
48244;BME280;34053;51.088;6.572;2023-04-01T18:59:17;99739.50;;;9.54;93.29
48244;BME280;34053;51.088;6.572;2023-04-01T19:07:01;99757.06;;;9.74;91.98
48244;BME280;34053;51.088;6.572;2023-04-01T19:09:45;99748.69;;;9.64;92.45
48244;BME280;34053;51.088;6.572;2023-04-01T19:12:38;99756.44;;;9.67;92.93
48244;BME280;34053;51.088;6.572;2023-04-01T19:19:12;99758.34;;;9.40;94.92
48244;BME280;34053;51.088;6.572;2023-04-01T19:21:57;99760.78;;;9.44;93.82
48244;BME280;34053;51.088;6.572;2023-04-01T19:24:42;99766.06;;;9.43;93.99
48244;BME280;34053;51.088;6.572;2023-04-01T19:27:34;99764.72;;;9.33;95.10
48244;BME280;34053;51.088;6.572;2023-04-01T19:30:31;99767.00;;;9.42;94.30
48244;BME280;34053;51.088;6.572;2023-04-01T19:36:01;99772.03;;;9.47;94.31
48244;BME280;34053;51.088;6.572;2023-04-01T19:38:52;99771.13;;;9.48;93.53
48244;BME280;34053;51.088;6.572;2023-04-01T19:41:46;99774.78;;;9.43;94.09
48244;BME280;34053;51.088;6.572;2023-04-01T19:47:44;99784.53;;;9.40;94.29
48244;BME280;34053;51.088;6.572;2023-04-01T19:52:36;99782.88;;;9.37;94.36
48244;BME280;34053;51.088;6.572;2023-04-01T19:58:33;99790.72;;;9.37;94.50
48244;BME280;34053;51.088;6.572;2023-04-01T20:01:12;99794.59;;;9.27;95.19
48244;BME280;34053;51.088;6.572;2023-04-01T20:03:57;99799.59;;;9.33;95.14
48244;BME280;34053;51.088;6.572;2023-04-01T20:06:38;99799.25;;;9.42;93.86
48244;BME280;34053;51.088;6.572;2023-04-01T20:14:35;99808.34;;;9.32;94.89
48244;BME280;34053;51.088;6.572;2023-04-01T20:30:53;99832.66;;;9.36;94.59
48244;BME280;34053;51.088;6.572;2023-04-01T20:33:35;99833.38;;;9.41;94.24
48244;BME280;34053;51.088;6.572;2023-04-01T20:41:49;99842.97;;;9.40;94.88
48244;BME280;34053;51.088;6.572;2023-04-01T20:47:11;99845.91;;;9.31;95.40
48244;BME280;34053;51.088;6.572;2023-04-01T20:49:54;99847.41;;;9.38;95.15
48244;BME280;34053;51.088;6.572;2023-04-01T20:52:38;99854.47;;;9.36;95.38
48244;BME280;34053;51.088;6.572;2023-04-01T20:55:51;99852.31;;;9.48;94.85
48244;BME280;34053;51.088;6.572;2023-04-01T20:58:32;99859.59;;;9.63;92.79
48244;BME280;34053;51.088;6.572;2023-04-01T21:07:16;99865.47;;;9.46;95.08
48244;BME280;34053;51.088;6.572;2023-04-01T21:10:17;99867.50;;;9.61;93.82
48244;BME280;34053;51.088;6.572;2023-04-01T21:13:26;99874.00;;;9.51;95.61
48244;BME280;34053;51.088;6.572;2023-04-01T21:16:25;99873.81;;;9.56;94.67
48244;BME280;34053;51.088;6.572;2023-04-01T21:19:31;99876.41;;;9.57;95.20
48244;BME280;34053;51.088;6.572;2023-04-01T21:33:38;99906.53;;;9.69;94.55
48244;BME280;34053;51.088;6.572;2023-04-01T22:07:19;99975.28;;;9.51;93.42
48244;BME280;34053;51.088;6.572;2023-04-01T22:12:46;99982.44;;;9.71;91.76
48244;BME280;34053;51.088;6.572;2023-04-01T22:15:45;99988.00;;;9.61;91.55
48244;BME280;34053;51.088;6.572;2023-04-01T22:24:15;100009.53;;;9.44;92.15
48244;BME280;34053;51.088;6.572;2023-04-01T22:26:57;100005.16;;;9.18;92.47
48244;BME280;34053;51.088;6.572;2023-04-01T22:29:42;100015.00;;;9.37;91.75
48244;BME280;34053;51.088;6.572;2023-04-01T22:32:19;100021.66;;;9.20;91.51
48244;BME280;34053;51.088;6.572;2023-04-01T22:35:10;100024.56;;;9.11;92.15
48244;BME280;34053;51.088;6.572;2023-04-01T22:40:42;100040.88;;;9.21;91.26
48244;BME280;34053;51.088;6.572;2023-04-01T22:43:38;100039.16;;;9.20;91.34
48244;BME280;34053;51.088;6.572;2023-04-01T22:49:18;100040.19;;;9.14;91.17
48244;BME280;34053;51.088;6.572;2023-04-01T22:54:55;100059.81;;;9.01;91.71
48244;BME280;34053;51.088;6.572;2023-04-01T23:02:46;100078.91;;;9.03;90.58
48244;BME280;34053;51.088;6.572;2023-04-01T23:05:19;100073.13;;;8.93;90.73
48244;BME280;34053;51.088;6.572;2023-04-01T23:10:41;100096.88;;;8.87;91.34
48244;BME280;34053;51.088;6.572;2023-04-01T23:13:18;100103.88;;;8.85;91.34
48244;BME280;34053;51.088;6.572;2023-04-01T23:15:53;100095.50;;;9.03;90.66
48244;BME280;34053;51.088;6.572;2023-04-01T23:21:25;100114.56;;;8.77;90.57
48244;BME280;34053;51.088;6.572;2023-04-01T23:24:41;100119.22;;;8.67;89.15
48244;BME280;34053;51.088;6.572;2023-04-01T23:27:37;100126.47;;;8.57;89.33
48244;BME280;34053;51.088;6.572;2023-04-01T23:33:21;100136.56;;;8.71;88.36
48244;BME280;34053;51.088;6.572;2023-04-01T23:36:00;100155.66;;;8.73;88.19
48244;BME280;34053;51.088;6.572;2023-04-01T23:38:40;100148.50;;;8.48;89.29
48244;BME280;34053;51.088;6.572;2023-04-01T23:41:23;100153.59;;;8.53;88.58
48244;BME280;34053;51.088;6.572;2023-04-01T23:43:59;100158.97;;;8.48;89.02
48244;BME280;34053;51.088;6.572;2023-04-01T23:46:32;100154.28;;;8.60;88.55
48244;BME280;34053;51.088;6.572;2023-04-01T23:49:06;100169.47;;;8.45;89.05
48244;BME280;34053;51.088;6.572;2023-04-01T23:54:33;100175.47;;;8.50;88.40
48244;BME280;34053;51.088;6.572;2023-04-01T23:57:11;100184.28;;;8.46;88.51
48244;BME280;34053;51.088;6.572;2023-04-01T23:59:42;100193.97;;;8.43;88.50
